sensor_id;sensor_type;location;lat;lon;timestamp;temperature;humidity
28947;DHT22;16052;50.930;5.326;2023-04-25T00:01:24;11.20;30.30
28947;DHT22;16052;50.930;5.326;2023-04-25T00:03:50;11.50;27.70
28947;DHT22;16052;50.930;5.326;2023-04-25T00:06:16;11.40;27.30
28947;DHT22;16052;50.930;5.326;2023-04-25T00:08:43;11.30;29.70
28947;DHT22;16052;50.930;5.326;2023-04-25T00:11:08;11.40;30.20
28947;DHT22;16052;50.930;5.326;2023-04-25T00:13:34;11.50;27.60
28947;DHT22;16052;50.930;5.326;2023-04-25T00:16:00;11.30;27.50
28947;DHT22;16052;50.930;5.326;2023-04-25T00:18:26;11.40;26.70
28947;DHT22;16052;50.930;5.326;2023-04-25T00:20:54;11.40;29.20
28947;DHT22;16052;50.930;5.326;2023-04-25T00:23:20;11.30;30.30
28947;DHT22;16052;50.930;5.326;2023-04-25T00:25:50;11.20;32.50
28947;DHT22;16052;50.930;5.326;2023-04-25T00:28:16;11.30;34.50
28947;DHT22;16052;50.930;5.326;2023-04-25T00:30:42;11.30;32.70
28947;DHT22;16052;50.930;5.326;2023-04-25T00:33:08;11.30;34.40
28947;DHT22;16052;50.930;5.326;2023-04-25T00:35:34;11.30;32.30
28947;DHT22;16052;50.930;5.326;2023-04-25T00:38:00;11.20;36.30
28947;DHT22;16052;50.930;5.326;2023-04-25T00:40:26;11.30;34.00
28947;DHT22;16052;50.930;5.326;2023-04-25T00:42:52;11.20;35.10
28947;DHT22;16052;50.930;5.326;2023-04-25T00:45:19;11.30;36.50
28947;DHT22;16052;50.930;5.326;2023-04-25T00:47:45;11.20;36.30
28947;DHT22;16052;50.930;5.326;2023-04-25T00:50:12;11.20;36.80
28947;DHT22;16052;50.930;5.326;2023-04-25T00:52:39;11.20;36.80
28947;DHT22;16052;50.930;5.326;2023-04-25T00:55:06;11.20;38.00
28947;DHT22;16052;50.930;5.326;2023-04-25T00:57:33;11.20;37.40
28947;DHT22;16052;50.930;5.326;2023-04-25T00:59:59;11.10;38.90
28947;DHT22;16052;50.930;5.326;2023-04-25T01:02:26;11.30;34.00
28947;DHT22;16052;50.930;5.326;2023-04-25T01:04:52;11.30;35.40
28947;DHT22;16052;50.930;5.326;2023-04-25T01:07:19;11.10;37.70
28947;DHT22;16052;50.930;5.326;2023-04-25T01:09:46;11.10;38.60
28947;DHT22;16052;50.930;5.326;2023-04-25T01:12:12;11.10;41.60
28947;DHT22;16052;50.930;5.326;2023-04-25T01:14:38;10.90;46.10
28947;DHT22;16052;50.930;5.326;2023-04-25T01:17:04;10.90;48.70
28947;DHT22;16052;50.930;5.326;2023-04-25T01:19:30;10.90;46.40
28947;DHT22;16052;50.930;5.326;2023-04-25T01:21:56;10.90;48.90
28947;DHT22;16052;50.930;5.326;2023-04-25T01:24:22;11.00;46.60
28947;DHT22;16052;50.930;5.326;2023-04-25T01:26:48;10.80;48.90
28947;DHT22;16052;50.930;5.326;2023-04-25T01:29:17;10.60;54.60
28947;DHT22;16052;50.930;5.326;2023-04-25T01:31:44;10.60;58.40
28947;DHT22;16052;50.930;5.326;2023-04-25T01:34:11;10.50;59.20
28947;DHT22;16052;50.930;5.326;2023-04-25T01:36:39;10.30;65.70
28947;DHT22;16052;50.930;5.326;2023-04-25T01:39:04;10.30;64.60
28947;DHT22;16052;50.930;5.326;2023-04-25T01:41:31;10.30;65.50
28947;DHT22;16052;50.930;5.326;2023-04-25T01:43:57;10.40;62.40
28947;DHT22;16052;50.930;5.326;2023-04-25T01:46:22;10.50;64.70
28947;DHT22;16052;50.930;5.326;2023-04-25T01:48:48;10.80;54.40
28947;DHT22;16052;50.930;5.326;2023-04-25T01:51:14;10.90;51.30
28947;DHT22;16052;50.930;5.326;2023-04-25T01:53:41;10.90;48.40
28947;DHT22;16052;50.930;5.326;2023-04-25T01:56:07;11.00;47.60
28947;DHT22;16052;50.930;5.326;2023-04-25T01:58:33;10.90;47.40
28947;DHT22;16052;50.930;5.326;2023-04-25T02:00:58;10.70;51.20
28947;DHT22;16052;50.930;5.326;2023-04-25T02:03:24;10.70;55.10
28947;DHT22;16052;50.930;5.326;2023-04-25T02:05:50;10.80;55.10
28947;DHT22;16052;50.930;5.326;2023-04-25T02:08:16;10.80;53.90
28947;DHT22;16052;50.930;5.326;2023-04-25T02:10:42;10.90;51.90
28947;DHT22;16052;50.930;5.326;2023-04-25T02:13:08;10.90;51.10
28947;DHT22;16052;50.930;5.326;2023-04-25T02:15:34;10.80;52.90
28947;DHT22;16052;50.930;5.326;2023-04-25T02:17:59;10.80;54.90
28947;DHT22;16052;50.930;5.326;2023-04-25T02:20:29;10.90;53.40
28947;DHT22;16052;50.930;5.326;2023-04-25T02:22:55;11.00;50.20
28947;DHT22;16052;50.930;5.326;2023-04-25T02:25:22;11.00;50.30
28947;DHT22;16052;50.930;5.326;2023-04-25T02:27:48;11.10;49.30
28947;DHT22;16052;50.930;5.326;2023-04-25T02:30:14;10.90;51.70
28947;DHT22;16052;50.930;5.326;2023-04-25T02:32:40;10.80;54.80
28947;DHT22;16052;50.930;5.326;2023-04-25T02:35:06;10.80;57.80
28947;DHT22;16052;50.930;5.326;2023-04-25T02:37:34;10.80;55.30
28947;DHT22;16052;50.930;5.326;2023-04-25T02:40:00;10.80;55.80
28947;DHT22;16052;50.930;5.326;2023-04-25T02:42:26;10.80;58.20
28947;DHT22;16052;50.930;5.326;2023-04-25T02:44:52;10.70;57.80
28947;DHT22;16052;50.930;5.326;2023-04-25T02:47:18;10.90;55.80
28947;DHT22;16052;50.930;5.326;2023-04-25T02:49:44;10.90;56.00
28947;DHT22;16052;50.930;5.326;2023-04-25T02:52:10;10.90;55.00
28947;DHT22;16052;50.930;5.326;2023-04-25T02:54:36;10.90;57.00
28947;DHT22;16052;50.930;5.326;2023-04-25T02:57:02;11.10;51.80
28947;DHT22;16052;50.930;5.326;2023-04-25T02:59:28;11.10;52.50
28947;DHT22;16052;50.930;5.326;2023-04-25T03:01:54;11.10;53.10
28947;DHT22;16052;50.930;5.326;2023-04-25T03:04:20;10.90;56.20
28947;DHT22;16052;50.930;5.326;2023-04-25T03:06:46;10.70;56.50
28947;DHT22;16052;50.930;5.326;2023-04-25T03:09:12;10.50;68.50
28947;DHT22;16052;50.930;5.326;2023-04-25T03:11:41;10.70;60.90
28947;DHT22;16052;50.930;5.326;2023-04-25T03:14:06;10.40;66.30
28947;DHT22;16052;50.930;5.326;2023-04-25T03:16:32;10.40;68.30
28947;DHT22;16052;50.930;5.326;2023-04-25T03:18:58;10.40;70.50
28947;DHT22;16052;50.930;5.326;2023-04-25T03:21:23;10.40;70.10
28947;DHT22;16052;50.930;5.326;2023-04-25T03:23:49;10.70;64.50
28947;DHT22;16052;50.930;5.326;2023-04-25T03:26:15;10.80;63.40
28947;DHT22;16052;50.930;5.326;2023-04-25T03:28:41;10.70;61.80
28947;DHT22;16052;50.930;5.326;2023-04-25T03:31:07;10.70;65.40
28947;DHT22;16052;50.930;5.326;2023-04-25T03:33:33;10.60;68.90
28947;DHT22;16052;50.930;5.326;2023-04-25T03:35:59;10.40;71.60
28947;DHT22;16052;50.930;5.326;2023-04-25T03:38:24;10.50;71.10
28947;DHT22;16052;50.930;5.326;2023-04-25T03:40:51;10.20;79.60
28947;DHT22;16052;50.930;5.326;2023-04-25T03:43:16;10.30;80.20
28947;DHT22;16052;50.930;5.326;2023-04-25T03:45:42;10.60;70.50
28947;DHT22;16052;50.930;5.326;2023-04-25T03:48:08;10.70;66.40
28947;DHT22;16052;50.930;5.326;2023-04-25T03:50:34;10.40;75.30
28947;DHT22;16052;50.930;5.326;2023-04-25T03:53:00;10.50;72.20
28947;DHT22;16052;50.930;5.326;2023-04-25T03:55:26;10.30;74.70
28947;DHT22;16052;50.930;5.326;2023-04-25T03:57:51;10.20;79.10
28947;DHT22;16052;50.930;5.326;2023-04-25T04:00:17;10.20;83.00
28947;DHT22;16052;50.930;5.326;2023-04-25T04:02:43;10.30;79.60
28947;DHT22;16052;50.930;5.326;2023-04-25T04:05:08;10.30;79.50
28947;DHT22;16052;50.930;5.326;2023-04-25T04:07:34;10.20;81.00
28947;DHT22;16052;50.930;5.326;2023-04-25T04:10:09;10.30;79.30
28947;DHT22;16052;50.930;5.326;2023-04-25T04:12:35;10.40;75.00
28947;DHT22;16052;50.930;5.326;2023-04-25T04:15:02;10.30;71.40
28947;DHT22;16052;50.930;5.326;2023-04-25T04:17:29;10.00;71.10
28947;DHT22;16052;50.930;5.326;2023-04-25T04:19:55;9.10;91.60
28947;DHT22;16052;50.930;5.326;2023-04-25T04:22:20;9.20;92.20
28947;DHT22;16052;50.930;5.326;2023-04-25T04:24:46;9.20;90.10
28947;DHT22;16052;50.930;5.326;2023-04-25T04:27:13;9.40;86.10
28947;DHT22;16052;50.930;5.326;2023-04-25T04:29:39;9.40;75.70
28947;DHT22;16052;50.930;5.326;2023-04-25T04:32:04;9.30;77.80
28947;DHT22;16052;50.930;5.326;2023-04-25T04:34:30;9.10;77.80
28947;DHT22;16052;50.930;5.326;2023-04-25T04:36:56;9.20;78.20
28947;DHT22;16052;50.930;5.326;2023-04-25T04:39:22;9.30;78.50
28947;DHT22;16052;50.930;5.326;2023-04-25T04:41:48;9.30;75.70
28947;DHT22;16052;50.930;5.326;2023-04-25T04:44:14;9.40;73.40
28947;DHT22;16052;50.930;5.326;2023-04-25T04:46:40;9.60;65.40
28947;DHT22;16052;50.930;5.326;2023-04-25T04:49:10;9.50;64.40
28947;DHT22;16052;50.930;5.326;2023-04-25T04:51:37;9.70;62.50
28947;DHT22;16052;50.930;5.326;2023-04-25T04:54:03;9.60;53.50
28947;DHT22;16052;50.930;5.326;2023-04-25T04:56:30;9.40;58.00
28947;DHT22;16052;50.930;5.326;2023-04-25T04:58:57;9.40;61.90
28947;DHT22;16052;50.930;5.326;2023-04-25T05:01:23;9.20;64.90
28947;DHT22;16052;50.930;5.326;2023-04-25T05:03:49;9.50;61.90
28947;DHT22;16052;50.930;5.326;2023-04-25T05:06:16;9.70;60.00
28947;DHT22;16052;50.930;5.326;2023-04-25T05:08:41;9.80;52.60
28947;DHT22;16052;50.930;5.326;2023-04-25T05:11:07;10.00;51.40
28947;DHT22;16052;50.930;5.326;2023-04-25T05:13:35;10.10;48.00
28947;DHT22;16052;50.930;5.326;2023-04-25T05:16:01;10.40;38.90
28947;DHT22;16052;50.930;5.326;2023-04-25T05:18:27;10.50;35.30
28947;DHT22;16052;50.930;5.326;2023-04-25T05:20:52;10.60;35.00
28947;DHT22;16052;50.930;5.326;2023-04-25T05:23:18;10.70;31.50
28947;DHT22;16052;50.930;5.326;2023-04-25T05:25:44;10.70;34.50
28947;DHT22;16052;50.930;5.326;2023-04-25T05:28:12;10.50;39.70
28947;DHT22;16052;50.930;5.326;2023-04-25T05:30:37;10.70;39.20
28947;DHT22;16052;50.930;5.326;2023-04-25T05:33:03;10.80;33.60
28947;DHT22;16052;50.930;5.326;2023-04-25T05:35:29;10.80;30.80
28947;DHT22;16052;50.930;5.326;2023-04-25T05:37:55;10.70;33.70
28947;DHT22;16052;50.930;5.326;2023-04-25T05:40:21;10.70;34.00
28947;DHT22;16052;50.930;5.326;2023-04-25T05:42:46;10.70;35.70
28947;DHT22;16052;50.930;5.326;2023-04-25T05:45:12;10.60;36.90
28947;DHT22;16052;50.930;5.326;2023-04-25T05:47:38;10.40;40.30
28947;DHT22;16052;50.930;5.326;2023-04-25T05:50:04;10.30;44.60
28947;DHT22;16052;50.930;5.326;2023-04-25T05:52:30;10.50;39.00
28947;DHT22;16052;50.930;5.326;2023-04-25T05:54:56;10.60;41.60
28947;DHT22;16052;50.930;5.326;2023-04-25T05:57:25;10.70;37.70
28947;DHT22;16052;50.930;5.326;2023-04-25T05:59:52;10.70;37.00
28947;DHT22;16052;50.930;5.326;2023-04-25T06:02:19;10.70;38.50
28947;DHT22;16052;50.930;5.326;2023-04-25T06:04:46;10.60;38.70
28947;DHT22;16052;50.930;5.326;2023-04-25T06:07:12;10.60;43.80
28947;DHT22;16052;50.930;5.326;2023-04-25T06:09:38;10.50;44.60
28947;DHT22;16052;50.930;5.326;2023-04-25T06:12:05;10.50;47.80
28947;DHT22;16052;50.930;5.326;2023-04-25T06:14:31;10.50;47.70
28947;DHT22;16052;50.930;5.326;2023-04-25T06:16:57;10.40;50.80
28947;DHT22;16052;50.930;5.326;2023-04-25T06:19:24;10.60;47.90
28947;DHT22;16052;50.930;5.326;2023-04-25T06:21:50;10.50;48.50
28947;DHT22;16052;50.930;5.326;2023-04-25T06:24:16;10.50;51.50
28947;DHT22;16052;50.930;5.326;2023-04-25T06:26:41;10.60;55.10
28947;DHT22;16052;50.930;5.326;2023-04-25T06:29:07;10.60;50.60
28947;DHT22;16052;50.930;5.326;2023-04-25T06:31:33;10.50;50.40
28947;DHT22;16052;50.930;5.326;2023-04-25T06:33:59;10.30;57.90
28947;DHT22;16052;50.930;5.326;2023-04-25T06:36:25;10.30;59.20
28947;DHT22;16052;50.930;5.326;2023-04-25T06:38:51;10.30;53.80
28947;DHT22;16052;50.930;5.326;2023-04-25T06:41:20;10.30;54.50
28947;DHT22;16052;50.930;5.326;2023-04-25T06:43:46;10.10;52.70
28947;DHT22;16052;50.930;5.326;2023-04-25T06:46:12;10.00;60.40
28947;DHT22;16052;50.930;5.326;2023-04-25T06:48:38;10.00;63.30
28947;DHT22;16052;50.930;5.326;2023-04-25T06:51:04;10.10;63.10
28947;DHT22;16052;50.930;5.326;2023-04-25T06:53:29;10.00;65.90
28947;DHT22;16052;50.930;5.326;2023-04-25T06:55:55;10.00;68.60
28947;DHT22;16052;50.930;5.326;2023-04-25T06:58:21;9.90;71.70
28947;DHT22;16052;50.930;5.326;2023-04-25T07:00:47;9.90;71.80
28947;DHT22;16052;50.930;5.326;2023-04-25T07:03:14;9.70;76.10
28947;DHT22;16052;50.930;5.326;2023-04-25T07:05:40;9.90;68.30
28947;DHT22;16052;50.930;5.326;2023-04-25T07:08:06;10.00;65.70
28947;DHT22;16052;50.930;5.326;2023-04-25T07:10:32;9.70;61.10
28947;DHT22;16052;50.930;5.326;2023-04-25T07:13:00;9.80;68.40
28947;DHT22;16052;50.930;5.326;2023-04-25T07:15:27;10.00;67.30
28947;DHT22;16052;50.930;5.326;2023-04-25T07:17:53;10.30;62.50
28947;DHT22;16052;50.930;5.326;2023-04-25T07:20:18;10.40;55.00
28947;DHT22;16052;50.930;5.326;2023-04-25T07:22:44;10.40;57.00
28947;DHT22;16052;50.930;5.326;2023-04-25T07:25:13;10.60;55.70
28947;DHT22;16052;50.930;5.326;2023-04-25T07:27:39;10.60;51.70
28947;DHT22;16052;50.930;5.326;2023-04-25T07:30:05;10.60;51.90
28947;DHT22;16052;50.930;5.326;2023-04-25T07:32:31;10.40;52.60
28947;DHT22;16052;50.930;5.326;2023-04-25T07:34:57;10.60;52.00
28947;DHT22;16052;50.930;5.326;2023-04-25T07:37:23;10.60;49.20
28947;DHT22;16052;50.930;5.326;2023-04-25T07:39:48;10.50;46.70
28947;DHT22;16052;50.930;5.326;2023-04-25T07:42:14;10.70;45.30
28947;DHT22;16052;50.930;5.326;2023-04-25T07:44:46;10.90;35.60
28947;DHT22;16052;50.930;5.326;2023-04-25T07:47:12;10.90;34.30
28947;DHT22;16052;50.930;5.326;2023-04-25T07:49:41;11.00;32.20
28947;DHT22;16052;50.930;5.326;2023-04-25T07:52:07;11.00;33.50
28947;DHT22;16052;50.930;5.326;2023-04-25T07:54:34;10.90;31.20
28947;DHT22;16052;50.930;5.326;2023-04-25T07:56:59;11.00;17.10
28947;DHT22;16052;50.930;5.326;2023-04-25T07:59:25;11.00;8.00
28947;DHT22;16052;50.930;5.326;2023-04-25T08:01:51;11.20;6.60
28947;DHT22;16052;50.930;5.326;2023-04-25T08:04:17;10.90;2.40
28947;DHT22;16052;50.930;5.326;2023-04-25T08:06:43;10.70;10.50
28947;DHT22;16052;50.930;5.326;2023-04-25T08:09:09;10.90;9.60
28947;DHT22;16052;50.930;5.326;2023-04-25T08:11:35;10.90;6.60
28947;DHT22;16052;50.930;5.326;2023-04-25T08:14:01;10.80;9.10
28947;DHT22;16052;50.930;5.326;2023-04-25T08:16:27;10.90;9.50
28947;DHT22;16052;50.930;5.326;2023-04-25T08:18:53;11.00;7.60
28947;DHT22;16052;50.930;5.326;2023-04-25T08:21:19;11.10;2.80
28947;DHT22;16052;50.930;5.326;2023-04-25T08:23:45;11.00;1.00
28947;DHT22;16052;50.930;5.326;2023-04-25T08:26:11;11.10;1.00
28947;DHT22;16052;50.930;5.326;2023-04-25T08:28:37;11.20;1.00
28947;DHT22;16052;50.930;5.326;2023-04-25T08:31:03;11.00;1.00
28947;DHT22;16052;50.930;5.326;2023-04-25T08:33:29;11.00;1.00
28947;DHT22;16052;50.930;5.326;2023-04-25T08:35:55;10.80;1.00
28947;DHT22;16052;50.930;5.326;2023-04-25T08:38:21;10.90;1.00
28947;DHT22;16052;50.930;5.326;2023-04-25T08:40:50;11.10;1.00
28947;DHT22;16052;50.930;5.326;2023-04-25T08:43:20;10.80;1.00
28947;DHT22;16052;50.930;5.326;2023-04-25T08:45:46;10.90;1.00
28947;DHT22;16052;50.930;5.326;2023-04-25T08:48:14;10.80;1.00
28947;DHT22;16052;50.930;5.326;2023-04-25T08:50:47;10.80;1.00
28947;DHT22;16052;50.930;5.326;2023-04-25T08:53:16;10.90;1.00
28947;DHT22;16052;50.930;5.326;2023-04-25T08:55:45;10.80;1.00
28947;DHT22;16052;50.930;5.326;2023-04-25T08:58:12;10.90;1.00
28947;DHT22;16052;50.930;5.326;2023-04-25T09:00:38;11.00;1.00
28947;DHT22;16052;50.930;5.326;2023-04-25T09:03:04;11.00;1.00
28947;DHT22;16052;50.930;5.326;2023-04-25T09:05:32;11.00;1.00
28947;DHT22;16052;50.930;5.326;2023-04-25T09:07:57;11.10;1.00
28947;DHT22;16052;50.930;5.326;2023-04-25T09:10:23;11.10;1.00
28947;DHT22;16052;50.930;5.326;2023-04-25T09:13:08;11.10;1.00
28947;DHT22;16052;50.930;5.326;2023-04-25T09:15:51;11.00;1.00
28947;DHT22;16052;50.930;5.326;2023-04-25T09:18:31;11.00;1.00
28947;DHT22;16052;50.930;5.326;2023-04-25T09:21:11;11.00;1.00
28947;DHT22;16052;50.930;5.326;2023-04-25T09:23:48;11.00;1.00
28947;DHT22;16052;50.930;5.326;2023-04-25T09:26:19;11.20;1.00
28947;DHT22;16052;50.930;5.326;2023-04-25T09:28:45;11.10;1.00
28947;DHT22;16052;50.930;5.326;2023-04-25T09:31:21;11.10;1.00
28947;DHT22;16052;50.930;5.326;2023-04-25T09:34:10;11.10;1.00
28947;DHT22;16052;50.930;5.326;2023-04-25T09:36:41;11.40;1.00
28947;DHT22;16052;50.930;5.326;2023-04-25T09:39:12;11.70;1.00
28947;DHT22;16052;50.930;5.326;2023-04-25T09:41:41;12.00;1.00
28947;DHT22;16052;50.930;5.326;2023-04-25T09:44:06;12.10;1.00
28947;DHT22;16052;50.930;5.326;2023-04-25T09:46:35;12.30;1.00
28947;DHT22;16052;50.930;5.326;2023-04-25T09:49:05;12.40;1.00
28947;DHT22;16052;50.930;5.326;2023-04-25T09:51:31;12.40;1.00
28947;DHT22;16052;50.930;5.326;2023-04-25T09:53:57;12.50;1.00
28947;DHT22;16052;50.930;5.326;2023-04-25T09:56:23;12.50;1.00
28947;DHT22;16052;50.930;5.326;2023-04-25T09:58:50;12.60;1.00
28947;DHT22;16052;50.930;5.326;2023-04-25T10:01:19;12.80;1.00
28947;DHT22;16052;50.930;5.326;2023-04-25T10:03:49;12.90;1.00
28947;DHT22;16052;50.930;5.326;2023-04-25T10:06:19;13.00;1.00
28947;DHT22;16052;50.930;5.326;2023-04-25T10:08:50;13.00;1.00
28947;DHT22;16052;50.930;5.326;2023-04-25T10:11:17;12.90;1.00
28947;DHT22;16052;50.930;5.326;2023-04-25T10:13:43;12.90;1.00
28947;DHT22;16052;50.930;5.326;2023-04-25T10:16:10;12.80;1.00
28947;DHT22;16052;50.930;5.326;2023-04-25T10:18:37;12.80;1.00
28947;DHT22;16052;50.930;5.326;2023-04-25T10:21:04;13.00;1.00
28947;DHT22;16052;50.930;5.326;2023-04-25T10:23:32;12.90;1.00
28947;DHT22;16052;50.930;5.326;2023-04-25T10:26:00;12.90;1.00
28947;DHT22;16052;50.930;5.326;2023-04-25T10:28:26;12.80;1.00
28947;DHT22;16052;50.930;5.326;2023-04-25T10:31:02;12.70;1.00
28947;DHT22;16052;50.930;5.326;2023-04-25T10:33:36;12.40;1.00
28947;DHT22;16052;50.930;5.326;2023-04-25T10:36:19;12.20;1.00
28947;DHT22;16052;50.930;5.326;2023-04-25T10:38:48;12.10;1.00
28947;DHT22;16052;50.930;5.326;2023-04-25T10:41:14;11.70;1.00
28947;DHT22;16052;50.930;5.326;2023-04-25T10:43:44;11.30;1.00
28947;DHT22;16052;50.930;5.326;2023-04-25T10:46:16;11.50;1.00
28947;DHT22;16052;50.930;5.326;2023-04-25T10:48:55;11.70;1.00
28947;DHT22;16052;50.930;5.326;2023-04-25T10:56:23;11.70;1.00
28947;DHT22;16052;50.930;5.326;2023-04-25T10:58:50;11.80;1.00
28947;DHT22;16052;50.930;5.326;2023-04-25T11:01:20;12.00;1.00
28947;DHT22;16052;50.930;5.326;2023-04-25T11:03:46;12.20;1.00
28947;DHT22;16052;50.930;5.326;2023-04-25T11:06:37;12.30;1.00
28947;DHT22;16052;50.930;5.326;2023-04-25T11:09:11;12.50;1.00
28947;DHT22;16052;50.930;5.326;2023-04-25T11:11:41;12.60;1.00
28947;DHT22;16052;50.930;5.326;2023-04-25T11:14:07;12.70;1.00
28947;DHT22;16052;50.930;5.326;2023-04-25T11:16:33;12.80;99.90
28947;DHT22;16052;50.930;5.326;2023-04-25T11:18:58;12.80;1.00
28947;DHT22;16052;50.930;5.326;2023-04-25T11:21:27;13.00;1.00
28947;DHT22;16052;50.930;5.326;2023-04-25T11:23:54;13.20;99.90
28947;DHT22;16052;50.930;5.326;2023-04-25T11:26:22;13.40;99.90
28947;DHT22;16052;50.930;5.326;2023-04-25T11:28:49;13.40;99.90
28947;DHT22;16052;50.930;5.326;2023-04-25T11:31:15;13.40;99.90
28947;DHT22;16052;50.930;5.326;2023-04-25T11:33:40;13.60;99.90
28947;DHT22;16052;50.930;5.326;2023-04-25T11:36:08;13.90;99.90
28947;DHT22;16052;50.930;5.326;2023-04-25T11:38:34;14.20;99.90
28947;DHT22;16052;50.930;5.326;2023-04-25T11:41:00;14.40;1.00
28947;DHT22;16052;50.930;5.326;2023-04-25T11:43:26;14.60;99.90
28947;DHT22;16052;50.930;5.326;2023-04-25T11:45:52;14.50;99.90
28947;DHT22;16052;50.930;5.326;2023-04-25T11:48:18;14.60;99.90
28947;DHT22;16052;50.930;5.326;2023-04-25T11:50:45;14.80;99.90
28947;DHT22;16052;50.930;5.326;2023-04-25T11:53:11;14.90;99.90
28947;DHT22;16052;50.930;5.326;2023-04-25T11:55:37;14.80;1.00
28947;DHT22;16052;50.930;5.326;2023-04-25T11:58:03;14.70;18.80
28947;DHT22;16052;50.930;5.326;2023-04-25T12:00:29;14.80;99.90
28947;DHT22;16052;50.930;5.326;2023-04-25T12:02:56;14.70;99.90
28947;DHT22;16052;50.930;5.326;2023-04-25T12:05:27;14.90;99.90
28947;DHT22;16052;50.930;5.326;2023-04-25T12:07:53;15.00;1.00
28947;DHT22;16052;50.930;5.326;2023-04-25T12:10:20;15.10;1.00
28947;DHT22;16052;50.930;5.326;2023-04-25T12:12:47;15.20;1.00
28947;DHT22;16052;50.930;5.326;2023-04-25T12:15:25;15.40;1.00
28947;DHT22;16052;50.930;5.326;2023-04-25T12:17:53;15.20;2.00
28947;DHT22;16052;50.930;5.326;2023-04-25T12:20:23;15.10;99.90
28947;DHT22;16052;50.930;5.326;2023-04-25T12:22:49;15.00;96.00
28947;DHT22;16052;50.930;5.326;2023-04-25T12:25:35;15.00;99.90
28947;DHT22;16052;50.930;5.326;2023-04-25T12:28:17;14.80;99.90
28947;DHT22;16052;50.930;5.326;2023-04-25T12:33:20;14.30;1.00
28947;DHT22;16052;50.930;5.326;2023-04-25T12:35:47;13.90;1.00
28947;DHT22;16052;50.930;5.326;2023-04-25T12:38:21;13.60;1.00
28947;DHT22;16052;50.930;5.326;2023-04-25T12:40:47;13.10;1.00
28947;DHT22;16052;50.930;5.326;2023-04-25T12:43:12;13.00;1.00
28947;DHT22;16052;50.930;5.326;2023-04-25T12:45:38;13.00;1.00
28947;DHT22;16052;50.930;5.326;2023-04-25T12:48:04;13.20;1.00
28947;DHT22;16052;50.930;5.326;2023-04-25T12:50:30;13.30;1.00
28947;DHT22;16052;50.930;5.326;2023-04-25T12:52:55;13.40;1.00
28947;DHT22;16052;50.930;5.326;2023-04-25T12:55:21;13.40;1.00
28947;DHT22;16052;50.930;5.326;2023-04-25T12:57:47;13.40;1.00
28947;DHT22;16052;50.930;5.326;2023-04-25T13:00:13;13.50;1.00
28947;DHT22;16052;50.930;5.326;2023-04-25T13:02:40;13.50;1.00
28947;DHT22;16052;50.930;5.326;2023-04-25T13:05:06;13.70;1.00
28947;DHT22;16052;50.930;5.326;2023-04-25T13:07:32;13.80;1.00
28947;DHT22;16052;50.930;5.326;2023-04-25T13:09:58;14.00;1.00
28947;DHT22;16052;50.930;5.326;2023-04-25T13:12:24;14.30;1.00
28947;DHT22;16052;50.930;5.326;2023-04-25T13:14:50;14.50;1.00
28947;DHT22;16052;50.930;5.326;2023-04-25T13:17:16;14.50;99.90
28947;DHT22;16052;50.930;5.326;2023-04-25T13:19:41;14.50;99.90
28947;DHT22;16052;50.930;5.326;2023-04-25T13:22:07;14.40;99.90
28947;DHT22;16052;50.930;5.326;2023-04-25T13:24:33;14.30;99.90
28947;DHT22;16052;50.930;5.326;2023-04-25T13:26:58;14.40;99.90
28947;DHT22;16052;50.930;5.326;2023-04-25T13:29:24;14.30;99.90
28947;DHT22;16052;50.930;5.326;2023-04-25T13:31:50;14.20;99.90
28947;DHT22;16052;50.930;5.326;2023-04-25T13:34:15;14.20;1.00
28947;DHT22;16052;50.930;5.326;2023-04-25T13:36:41;13.70;1.00
28947;DHT22;16052;50.930;5.326;2023-04-25T13:39:07;13.70;1.00
28947;DHT22;16052;50.930;5.326;2023-04-25T13:41:33;13.90;1.00
28947;DHT22;16052;50.930;5.326;2023-04-25T13:43:58;13.90;1.00
28947;DHT22;16052;50.930;5.326;2023-04-25T13:46:25;13.90;1.00
28947;DHT22;16052;50.930;5.326;2023-04-25T13:48:50;13.90;99.90
28947;DHT22;16052;50.930;5.326;2023-04-25T13:51:16;13.60;99.90
28947;DHT22;16052;50.930;5.326;2023-04-25T13:53:43;13.50;1.00
28947;DHT22;16052;50.930;5.326;2023-04-25T13:56:10;13.70;1.00
28947;DHT22;16052;50.930;5.326;2023-04-25T13:58:37;13.90;99.90
28947;DHT22;16052;50.930;5.326;2023-04-25T14:01:03;14.10;99.90
28947;DHT22;16052;50.930;5.326;2023-04-25T14:03:29;14.30;1.00
28947;DHT22;16052;50.930;5.326;2023-04-25T14:05:55;14.30;99.90
28947;DHT22;16052;50.930;5.326;2023-04-25T14:08:21;14.40;99.90
28947;DHT22;16052;50.930;5.326;2023-04-25T14:10:47;14.40;99.90
28947;DHT22;16052;50.930;5.326;2023-04-25T14:13:12;14.20;99.90
28947;DHT22;16052;50.930;5.326;2023-04-25T14:15:38;14.20;99.90
28947;DHT22;16052;50.930;5.326;2023-04-25T14:18:04;14.10;99.90
28947;DHT22;16052;50.930;5.326;2023-04-25T14:20:29;14.10;99.90
28947;DHT22;16052;50.930;5.326;2023-04-25T14:22:55;14.10;99.90
28947;DHT22;16052;50.930;5.326;2023-04-25T14:25:23;14.20;99.90
28947;DHT22;16052;50.930;5.326;2023-04-25T14:27:50;14.20;99.90
28947;DHT22;16052;50.930;5.326;2023-04-25T14:30:17;14.30;99.90
28947;DHT22;16052;50.930;5.326;2023-04-25T14:32:43;14.30;99.90
28947;DHT22;16052;50.930;5.326;2023-04-25T14:35:09;14.60;99.90
28947;DHT22;16052;50.930;5.326;2023-04-25T14:37:35;14.80;99.90
28947;DHT22;16052;50.930;5.326;2023-04-25T14:40:05;14.80;99.90
28947;DHT22;16052;50.930;5.326;2023-04-25T14:42:32;14.70;99.90
28947;DHT22;16052;50.930;5.326;2023-04-25T14:44:58;14.60;99.90
28947;DHT22;16052;50.930;5.326;2023-04-25T14:47:24;14.50;99.90
28947;DHT22;16052;50.930;5.326;2023-04-25T14:49:50;14.60;99.90
28947;DHT22;16052;50.930;5.326;2023-04-25T14:52:20;14.50;99.90
28947;DHT22;16052;50.930;5.326;2023-04-25T14:54:46;14.50;99.90
28947;DHT22;16052;50.930;5.326;2023-04-25T14:57:14;14.30;99.90
28947;DHT22;16052;50.930;5.326;2023-04-25T14:59:40;14.30;99.90
28947;DHT22;16052;50.930;5.326;2023-04-25T15:02:06;14.30;99.90
28947;DHT22;16052;50.930;5.326;2023-04-25T15:04:31;14.50;99.90
28947;DHT22;16052;50.930;5.326;2023-04-25T15:06:57;14.60;99.90
28947;DHT22;16052;50.930;5.326;2023-04-25T15:09:23;14.70;99.90
28947;DHT22;16052;50.930;5.326;2023-04-25T15:11:50;14.70;99.90
28947;DHT22;16052;50.930;5.326;2023-04-25T15:14:17;14.70;99.90
28947;DHT22;16052;50.930;5.326;2023-04-25T15:16:42;14.70;99.90
28947;DHT22;16052;50.930;5.326;2023-04-25T15:19:08;14.50;99.90
28947;DHT22;16052;50.930;5.326;2023-04-25T15:21:35;14.40;99.90
28947;DHT22;16052;50.930;5.326;2023-04-25T15:24:01;14.40;99.90
28947;DHT22;16052;50.930;5.326;2023-04-25T15:26:27;14.60;99.90
28947;DHT22;16052;50.930;5.326;2023-04-25T15:28:54;14.70;99.90
28947;DHT22;16052;50.930;5.326;2023-04-25T15:31:20;14.80;99.90
28947;DHT22;16052;50.930;5.326;2023-04-25T15:33:45;14.80;99.90
28947;DHT22;16052;50.930;5.326;2023-04-25T15:36:11;14.80;99.90
28947;DHT22;16052;50.930;5.326;2023-04-25T15:38:37;14.80;99.90
28947;DHT22;16052;50.930;5.326;2023-04-25T15:41:03;14.70;99.90
28947;DHT22;16052;50.930;5.326;2023-04-25T15:43:31;14.30;99.90